Impacts TAF Board
For situational awareness. Not to be used for flight planning purposes.
IDs:

KHUT - Hutchinson Muni, KS, US

Issued at 0520 UTC 16 Jul 2019
Updated at 1109 UTC 16 Jul 2019
Potential Impact None Slight Moderate High
Time1052Z 16/12Z 16/13Z 16/14Z 16/15Z 16/16Z 16/17Z 16/18Z 16/19Z 16/20Z 16/21Z 16/22Z 16/23Z 17/00Z>>
Type OBS PRVL PRVL PRVL PRVL PRVL PRVL PRVL PRVL PRVL PRVL PRVL PRVL PRVL
VIS 10 >6 >6 >6 >6 >6 >6 >6 >6 >6 >6 >6 >6 >6
CIG -- -- -- -- -- -- -- -- -- -- -- -- -- --
Cover CLR SKC SKC SKC SKC SKC SKC SKC SKC SKC SKC SKC SKC FEW
FltCat VFR VFR VFR VFR VFR VFR VFR VFR VFR VFR VFR VFR VFR VFR
WX -- -- -- -- -- -- -- -- -- -- -- -- -- --
WDir 230 100 100 100 160 160 160 160 160 160 160 160 160 160
WSpd 4 5 5 5 7 7 7 7 12 12 12 12 12 8
WGst -- -- -- -- -- -- -- -- -- -- -- -- -- --
Raw TAF
KHUT 160520Z 1606/1706 10005KT P6SM SKC
  FM161500 16007KT P6SM SKC
  FM161900 16012KT P6SM SKC
  FM170000 16008KT P6SM FEW250
  FM170300 14005KT P6SM FEW200


Raw METAR
KHUT 161052Z 23004KT 10SM CLR 21/19 A2993 RMK AO2 SLP112 T02110189
KHUT 160952Z AUTO 15004KT 10SM CLR 21/19 A2991 RMK AO2 SLP103 T02060189
KHUT 160852Z AUTO 17004KT 10SM CLR 21/19 A2992 RMK AO2 SLP106 T02110189 58006

METAR Board
Radar Display
Forecast Discussion
For situational awareness. Not to be used for flight planning purposes.